createdAt,value
2022-10-14T00:01:23.783Z,100051.56
2022-10-14T00:03:51.598Z,100056.91
2022-10-14T00:06:24.742Z,100056.91
2022-10-14T00:08:52.084Z,100062.41
2022-10-14T00:11:24.695Z,100055.41
2022-10-14T00:13:54.859Z,100053.09
2022-10-14T00:16:30.836Z,100057.09
2022-10-14T00:18:58.547Z,100054.44
2022-10-14T00:21:27.198Z,100055.63
2022-10-14T00:23:54.506Z,100055.44
2022-10-14T00:26:24.933Z,100055.94
2022-10-14T00:28:52.524Z,100055.28
2022-10-14T00:31:20.754Z,100056.78
2022-10-14T00:33:48.420Z,100054.25
2022-10-14T00:36:18.125Z,100054.28
2022-10-14T00:38:48.411Z,100055.47
2022-10-14T00:41:18.899Z,100059.13
2022-10-14T00:44:01.702Z,100053.97
2022-10-14T00:46:32.154Z,100058.63
2022-10-14T00:49:11.263Z,100062.47
2022-10-14T00:51:39.762Z,100056.47
2022-10-14T00:54:07.511Z,100057.47
2022-10-14T00:56:35.897Z,100055.97
2022-10-14T00:59:04.919Z,100054.81
2022-10-14T01:01:32.124Z,100058.00
2022-10-14T01:03:59.106Z,100058.66
2022-10-14T01:06:41.339Z,100062.00
2022-10-14T01:09:28.192Z,100063.81
2022-10-14T01:12:29.095Z,100066.97
2022-10-14T01:15:30.540Z,100065.63
2022-10-14T01:18:09.087Z,100063.81
2022-10-14T01:20:55.735Z,100065.13
2022-10-14T01:23:22.607Z,100052.28
2022-10-14T01:26:19.767Z,100051.31
2022-10-14T01:29:05.733Z,100052.28
2022-10-14T01:31:33.433Z,100054.31
2022-10-14T01:34:02.699Z,100054.31
2022-10-14T01:36:31.723Z,100052.28
2022-10-14T01:39:09.622Z,100047.31
2022-10-14T01:41:40.076Z,100041.50
2022-10-14T01:44:10.656Z,100048.34
2022-10-14T01:46:41.123Z,100047.34
2022-10-14T01:49:11.491Z,100042.84
2022-10-14T01:51:50.494Z,100040.19
2022-10-14T01:54:23.626Z,100037.50
2022-10-14T01:56:51.887Z,100045.31
2022-10-14T01:59:20.275Z,100040.13
2022-10-14T02:01:47.442Z,100051.25
2022-10-14T02:04:18.668Z,100038.75
2022-10-14T02:07:07.384Z,100043.72
2022-10-14T02:09:51.732Z,100047.78
2022-10-14T02:12:33.949Z,100044.59
2022-10-14T02:15:25.253Z,100053.41
2022-10-14T02:17:58.298Z,100050.38
2022-10-14T02:20:26.614Z,100044.63
2022-10-14T02:23:20.166Z,100043.91
2022-10-14T02:25:48.655Z,100041.34
2022-10-14T02:28:19.163Z,100043.13
2022-10-14T02:30:59.026Z,100044.75
2022-10-14T02:33:29.977Z,100050.84
2022-10-14T02:35:58.848Z,100050.41
2022-10-14T02:38:26.478Z,100049.34
2022-10-14T02:40:54.111Z,100051.13
2022-10-14T02:43:21.181Z,100044.44
2022-10-14T02:45:48.204Z,100056.34
2022-10-14T02:48:15.156Z,100058.22
2022-10-14T02:50:42.567Z,100054.22
2022-10-14T02:53:17.882Z,100055.75
2022-10-14T02:55:46.355Z,100053.84
2022-10-14T02:58:13.663Z,100055.19
2022-10-14T03:00:40.799Z,100058.59
2022-10-14T03:03:08.237Z,100051.94
2022-10-14T03:05:41.124Z,100058.00
2022-10-14T03:08:12.872Z,100053.44
2022-10-14T03:10:46.525Z,100056.63
2022-10-14T03:13:14.101Z,100069.50
2022-10-14T03:15:45.227Z,100059.19
2022-10-14T03:18:15.556Z,100056.13
2022-10-14T03:20:46.200Z,100046.41
2022-10-14T03:23:20.792Z,100060.06
2022-10-14T03:25:50.447Z,100040.84
2022-10-14T03:28:25.696Z,100051.84
2022-10-14T03:31:00.712Z,100040.47
2022-10-14T03:33:50.741Z,100046.06
2022-10-14T03:36:19.063Z,100047.34
2022-10-14T03:38:50.491Z,100052.25
2022-10-14T03:41:26.436Z,100046.25
2022-10-14T03:43:54.056Z,100040.25
2022-10-14T03:46:21.359Z,100036.63
2022-10-14T03:48:50.614Z,100041.50
2022-10-14T03:51:17.671Z,100045.84
2022-10-14T03:53:46.267Z,100042.31
2022-10-14T03:56:16.711Z,100042.06
2022-10-14T03:58:44.930Z,100036.19
2022-10-14T04:01:14.299Z,100035.50
2022-10-14T04:04:03.768Z,100042.47
2022-10-14T04:06:31.535Z,100038.16
2022-10-14T04:09:01.013Z,100035.34
2022-10-14T04:11:34.374Z,100035.06
2022-10-14T04:14:05.701Z,100038.09
2022-10-14T04:16:38.434Z,100040.31
2022-10-14T04:19:10.528Z,100039.78
2022-10-14T04:21:39.560Z,100039.00
2022-10-14T04:24:08.718Z,100033.31
2022-10-14T04:26:52.372Z,100038.34
2022-10-14T04:29:41.919Z,100043.53
2022-10-14T04:32:16.119Z,100051.91
2022-10-14T04:34:43.284Z,100045.94
2022-10-14T04:37:14.088Z,100047.16
2022-10-14T04:39:47.894Z,100046.28
2022-10-14T04:42:15.026Z,100047.34
2022-10-14T04:44:45.109Z,100045.41
2022-10-14T04:47:13.816Z,100045.13
2022-10-14T04:49:40.770Z,100049.06
2022-10-14T04:52:16.252Z,100046.03
2022-10-14T04:54:49.978Z,100049.03
2022-10-14T04:57:22.299Z,100041.84
2022-10-14T04:59:49.452Z,100040.56
2022-10-14T05:02:21.257Z,100049.28
2022-10-14T05:04:57.875Z,100044.50
2022-10-14T05:07:25.023Z,100047.03
2022-10-14T05:09:57.168Z,100044.94
2022-10-14T05:12:40.273Z,100043.88
2022-10-14T05:15:07.868Z,100045.19
2022-10-14T05:17:44.780Z,100054.09
2022-10-14T05:20:14.907Z,100050.09
2022-10-14T05:22:45.782Z,100052.13
2022-10-14T05:25:12.877Z,100052.31
2022-10-14T05:27:40.048Z,100047.47
2022-10-14T05:30:07.629Z,100057.19
2022-10-14T05:32:39.493Z,100051.66
2022-10-14T05:35:08.394Z,100053.53
2022-10-14T05:37:38.372Z,100049.44
2022-10-14T05:40:06.958Z,100045.56
2022-10-14T05:42:36.754Z,100055.69
2022-10-14T05:45:04.864Z,100050.84
2022-10-14T05:47:34.466Z,100055.75
2022-10-14T05:50:10.706Z,100053.97
2022-10-14T05:52:39.678Z,100061.03
2022-10-14T05:55:14.234Z,100054.94
2022-10-14T05:57:44.462Z,100052.38
2022-10-14T06:00:19.654Z,100049.72
2022-10-14T06:02:57.422Z,100054.72
2022-10-14T06:05:24.966Z,100054.94
2022-10-14T06:07:52.463Z,100059.63
2022-10-14T06:10:20.631Z,100056.97
2022-10-14T06:12:48.441Z,100052.66
2022-10-14T06:15:15.474Z,100050.00
2022-10-14T06:17:42.379Z,100052.81
2022-10-14T06:20:10.309Z,100065.63
2022-10-14T06:22:37.272Z,100058.97
2022-10-14T06:25:04.765Z,100057.94
2022-10-14T06:27:31.766Z,100063.75
2022-10-14T06:30:01.498Z,100055.72
2022-10-14T06:32:30.576Z,100054.88
2022-10-14T06:34:57.578Z,100053.66
2022-10-14T06:37:24.609Z,100053.09
2022-10-14T06:39:51.581Z,100048.59
2022-10-14T06:42:18.688Z,100061.53
2022-10-14T06:44:45.791Z,100056.44
2022-10-14T06:47:12.867Z,100053.22
2022-10-14T06:49:40.174Z,100062.19
2022-10-14T06:52:07.150Z,100055.78
2022-10-14T06:54:38.855Z,100057.38
2022-10-14T06:57:06.448Z,100064.19
2022-10-14T06:59:36.382Z,100060.25
2022-10-14T07:02:03.428Z,100061.19
2022-10-14T07:04:30.397Z,100064.63
2022-10-14T07:06:58.567Z,100064.66
2022-10-14T07:09:28.113Z,100066.84
2022-10-14T07:11:55.142Z,100064.63
2022-10-14T07:14:22.311Z,100061.88
2022-10-14T07:16:49.156Z,100061.22
2022-10-14T07:19:16.129Z,100066.13
2022-10-14T07:21:43.247Z,100062.31
2022-10-14T07:24:10.465Z,100062.84
2022-10-14T07:26:37.446Z,100068.53
2022-10-14T07:29:07.799Z,100063.72
2022-10-14T07:31:35.186Z,100066.50
2022-10-14T07:34:02.227Z,100067.03
2022-10-14T07:36:29.772Z,100057.31
2022-10-14T07:38:56.727Z,100054.38
2022-10-14T07:41:25.280Z,100064.56
2022-10-14T07:43:55.081Z,100063.06
2022-10-14T07:46:32.423Z,100063.25
2022-10-14T07:49:01.911Z,100064.59
2022-10-14T07:51:28.919Z,100059.00
2022-10-14T07:53:57.547Z,100056.09
2022-10-14T07:56:24.905Z,100051.50
2022-10-14T07:58:52.641Z,100061.69
2022-10-14T08:01:20.098Z,100058.13
2022-10-14T08:03:48.618Z,100056.38
2022-10-14T08:06:15.642Z,100044.63
2022-10-14T08:08:44.296Z,100049.41
2022-10-14T08:11:13.983Z,100038.00
2022-10-14T08:13:45.047Z,100050.41
2022-10-14T08:16:26.037Z,100046.22
2022-10-14T08:18:54.204Z,100048.25
2022-10-14T08:21:21.638Z,100046.00
2022-10-14T08:23:55.066Z,100039.13
2022-10-14T08:26:34.116Z,100045.44
2022-10-14T08:29:03.818Z,100038.81
2022-10-14T08:31:31.089Z,100050.50
2022-10-14T08:33:58.171Z,100039.72
2022-10-14T08:36:25.488Z,100031.38
2022-10-14T08:38:54.232Z,100038.59
2022-10-14T08:41:24.486Z,100034.69
2022-10-14T08:44:06.330Z,100034.97
2022-10-14T08:46:58.991Z,100030.03
2022-10-14T08:49:54.347Z,100035.19
2022-10-14T08:52:37.584Z,100029.53
2022-10-14T08:55:34.215Z,100028.94
2022-10-14T08:58:10.530Z,100027.72
2022-10-14T09:00:41.308Z,100024.63
2022-10-14T09:03:22.547Z,100018.16
2022-10-14T09:06:02.863Z,100026.56
2022-10-14T09:08:36.137Z,100021.88
2022-10-14T09:11:03.331Z,100017.84
2022-10-14T09:13:37.010Z,100020.41
2022-10-14T09:16:12.919Z,100004.25
2022-10-14T09:18:53.957Z,100014.31
2022-10-14T09:21:40.895Z,100019.06
2022-10-14T09:24:16.790Z,100018.53
2022-10-14T09:26:49.693Z,100014.81
2022-10-14T09:30:03.197Z,100012.34
2022-10-14T09:32:59.998Z,100015.16
2022-10-14T09:35:32.449Z,100018.06
2022-10-14T09:53:28.231Z,100003.69
2022-10-14T09:55:58.563Z,100002.06
2022-10-14T09:58:46.830Z,99999.38
2022-10-14T10:01:15.991Z,99999.09
2022-10-14T10:03:45.573Z,99997.16
2022-10-14T10:06:15.138Z,100006.38
2022-10-14T10:08:57.214Z,99994.56
2022-10-14T10:11:38.840Z,100003.50
2022-10-14T10:14:22.741Z,100010.00
2022-10-14T10:19:37.303Z,100004.22
2022-10-14T10:25:20.213Z,100013.38
2022-10-14T10:27:51.597Z,100023.56
2022-10-14T10:30:18.937Z,100016.31
2022-10-14T10:33:01.619Z,100011.53
2022-10-14T10:35:32.248Z,100010.72
2022-10-14T10:38:25.763Z,100015.38
2022-10-14T10:41:03.467Z,100019.84
2022-10-14T10:43:43.009Z,100022.88
2022-10-14T10:46:12.833Z,100014.69
2022-10-14T10:48:50.248Z,100006.72
2022-10-14T10:51:26.892Z,100007.81
2022-10-14T10:54:21.370Z,100005.19
2022-10-14T10:56:55.010Z,100011.88
2022-10-14T10:59:30.525Z,99998.16
2022-10-14T11:02:27.413Z,100014.66
2022-10-14T11:05:01.082Z,100012.69
2022-10-14T11:08:04.522Z,100002.38
2022-10-14T11:11:36.947Z,100010.09
2022-10-14T11:14:27.863Z,100016.19
2022-10-14T11:17:04.374Z,100004.06
2022-10-14T11:19:50.160Z,100006.78
2022-10-14T11:23:07.840Z,100006.56
2022-10-14T11:25:49.398Z,100001.13
2022-10-14T11:28:24.069Z,100004.81
2022-10-14T11:31:17.895Z,99993.44
2022-10-14T11:34:28.563Z,100001.78
2022-10-14T11:37:10.710Z,100006.47
2022-10-14T11:39:42.193Z,100012.34
2022-10-14T11:42:28.234Z,100001.03
2022-10-14T11:45:15.014Z,100012.97
2022-10-14T11:47:49.223Z,100007.00
2022-10-14T11:50:24.520Z,100004.34
2022-10-14T11:53:22.338Z,100010.34
2022-10-14T11:55:57.469Z,99997.81
2022-10-14T11:58:26.777Z,100009.00
2022-10-14T12:00:55.971Z,99999.47
2022-10-14T12:03:59.914Z,99999.84
2022-10-14T12:06:34.562Z,100001.38
2022-10-14T12:09:07.260Z,99994.94
2022-10-14T12:11:51.856Z,99998.81
2022-10-14T12:14:40.939Z,99984.41
2022-10-14T12:17:18.779Z,99977.13
2022-10-14T12:19:46.250Z,99984.47
2022-10-14T12:22:26.310Z,99983.09
2022-10-14T12:24:55.525Z,99978.97
2022-10-14T12:27:28.331Z,99978.53
2022-10-14T12:30:00.244Z,99982.59
2022-10-14T12:32:30.744Z,99975.22
2022-10-14T12:35:02.272Z,99975.53
2022-10-14T12:37:38.198Z,99964.38
2022-10-14T12:40:06.885Z,99971.03
2022-10-14T12:42:44.308Z,99962.88
2022-10-14T12:45:17.303Z,99963.63
2022-10-14T12:47:53.402Z,99968.75
2022-10-14T12:50:20.916Z,99966.84
2022-10-14T12:52:56.430Z,99948.84
2022-10-14T12:55:25.987Z,99959.34
2022-10-14T12:57:58.734Z,99957.03
2022-10-14T13:00:25.787Z,99963.59
2022-10-14T13:03:05.591Z,99951.66
2022-10-14T13:05:36.892Z,99957.91
2022-10-14T13:08:20.316Z,99954.75
2022-10-14T13:10:59.256Z,99961.13
2022-10-14T13:13:42.351Z,99967.16
2022-10-14T13:16:11.992Z,99959.72
2022-10-14T13:18:39.428Z,99962.78
2022-10-14T13:21:08.370Z,99960.81
2022-10-14T13:23:46.264Z,99957.19
2022-10-14T13:26:23.464Z,99958.09
2022-10-14T13:28:56.950Z,99966.50
2022-10-14T13:31:36.208Z,99965.22
2022-10-14T13:34:19.156Z,99959.13
2022-10-14T13:36:59.809Z,99963.44
2022-10-14T13:39:27.759Z,99956.25
2022-10-14T13:41:58.682Z,99960.19
2022-10-14T13:44:26.476Z,99955.81
2022-10-14T13:46:55.392Z,99958.06
2022-10-14T13:49:32.312Z,99951.03
2022-10-14T13:52:08.610Z,99960.50
2022-10-14T13:54:37.178Z,99963.72
2022-10-14T14:00:42.267Z,99955.19
2022-10-14T14:03:18.839Z,99954.97
2022-10-14T14:05:47.025Z,99956.69
2022-10-14T14:08:38.654Z,99957.28
2022-10-14T14:11:16.898Z,99960.59
2022-10-14T14:14:01.190Z,99957.75
2022-10-14T14:19:26.419Z,99948.75
2022-10-14T14:22:06.920Z,99946.56
2022-10-14T14:24:36.653Z,99944.19
2022-10-14T14:27:04.109Z,99944.78
2022-10-14T14:29:33.194Z,99936.22
2022-10-14T14:32:09.015Z,99957.06
2022-10-14T14:34:38.262Z,99954.16
2022-10-14T14:40:15.470Z,99947.28
2022-10-14T14:42:42.915Z,99949.25
2022-10-14T14:45:31.018Z,99948.09
2022-10-14T14:48:02.129Z,99950.91
2022-10-14T14:50:33.271Z,99953.28
2022-10-14T14:53:07.641Z,99952.06
2022-10-14T14:55:36.609Z,99954.78
2022-10-14T14:58:04.462Z,99943.88
2022-10-14T15:00:31.595Z,99937.25
2022-10-14T15:03:01.531Z,99933.59
2022-10-14T15:05:30.784Z,99937.16
2022-10-14T15:07:58.304Z,99939.44
2022-10-14T15:10:28.734Z,99938.03
2022-10-14T15:12:58.118Z,99941.97
2022-10-14T15:15:31.238Z,99946.53
2022-10-14T15:18:19.936Z,99944.38
2022-10-14T15:20:48.236Z,99944.59
2022-10-14T15:23:40.678Z,99952.81
2022-10-14T15:26:25.429Z,99949.00
2022-10-14T15:29:04.802Z,99950.03
2022-10-14T15:31:31.956Z,99941.50
2022-10-14T15:33:58.928Z,99942.53
2022-10-14T15:36:27.467Z,99948.28
2022-10-14T15:38:59.246Z,99949.50
2022-10-14T15:41:30.928Z,99942.06
2022-10-14T15:43:58.020Z,99950.81
2022-10-14T15:46:43.478Z,99947.75
2022-10-14T15:49:17.276Z,99948.63
2022-10-14T15:51:44.726Z,99953.97
2022-10-14T15:54:16.754Z,99951.88
2022-10-14T15:56:44.186Z,99948.56
2022-10-14T15:59:11.412Z,99949.59
2022-10-14T16:01:41.738Z,99944.41
2022-10-14T16:04:18.278Z,99948.78
2022-10-14T16:06:46.611Z,99951.56
2022-10-14T16:09:14.356Z,99936.28
2022-10-14T16:11:41.413Z,99948.06
2022-10-14T16:14:13.505Z,99953.44
2022-10-14T16:16:45.819Z,99951.97
2022-10-14T16:19:15.725Z,99949.34
2022-10-14T16:21:42.903Z,99954.97
2022-10-14T16:24:18.647Z,99956.25
2022-10-14T16:26:51.571Z,99962.56
2022-10-14T16:29:19.563Z,99960.34
2022-10-14T16:31:50.212Z,99961.53
2022-10-14T16:34:20.026Z,99961.28
2022-10-14T16:36:53.952Z,99961.38
2022-10-14T16:39:21.086Z,99962.09
2022-10-14T16:41:50.643Z,99958.31
2022-10-14T16:44:27.908Z,99970.16
2022-10-14T16:47:15.590Z,99959.44
2022-10-14T16:49:48.206Z,99958.63
2022-10-14T16:52:17.468Z,99960.00
2022-10-14T16:54:44.535Z,99953.28
2022-10-14T16:57:13.646Z,99959.25
2022-10-14T16:59:44.299Z,99963.72
2022-10-14T17:02:14.919Z,99954.56
2022-10-14T17:04:42.665Z,99955.78
2022-10-14T17:07:15.083Z,99954.94
2022-10-14T17:09:42.271Z,99948.94
2022-10-14T17:12:13.865Z,99945.75
2022-10-14T17:14:44.679Z,99951.03
2022-10-14T17:17:14.307Z,99943.72
2022-10-14T17:19:42.640Z,99960.44
2022-10-14T17:22:12.060Z,99941.94
2022-10-14T17:24:39.715Z,99946.63
2022-10-14T17:29:50.916Z,99962.06
2022-10-14T17:32:20.185Z,99958.63
2022-10-14T17:37:33.745Z,99950.53
2022-10-14T17:40:27.366Z,99956.78
2022-10-14T17:42:56.213Z,99947.22
2022-10-14T17:45:28.376Z,99945.31
2022-10-14T17:50:37.583Z,99960.59
2022-10-14T17:53:05.547Z,99964.56
2022-10-14T17:55:36.066Z,99958.56
2022-10-14T17:58:05.791Z,99965.84
2022-10-14T18:00:33.249Z,99945.91
2022-10-14T18:03:02.763Z,99949.16
2022-10-14T18:08:17.652Z,99954.47
2022-10-14T18:11:00.450Z,99967.91
2022-10-14T18:13:33.098Z,99966.44
2022-10-14T18:16:07.660Z,99962.94
2022-10-14T18:18:38.859Z,99962.63
2022-10-14T18:21:07.792Z,99965.72
2022-10-14T18:23:58.145Z,99949.25
2022-10-14T18:26:37.144Z,99955.16
2022-10-14T18:32:17.532Z,99980.38
2022-10-14T18:35:45.186Z,99955.41
2022-10-14T18:41:16.721Z,99964.41
2022-10-14T18:43:46.430Z,99960.06
2022-10-14T18:49:26.001Z,99956.53
2022-10-14T18:52:05.078Z,99976.97
2022-10-14T18:54:53.322Z,99973.91
2022-10-14T18:57:23.904Z,99979.78
2022-10-14T19:05:59.535Z,99972.97
2022-10-14T19:08:33.914Z,99980.09
2022-10-14T19:11:28.343Z,99977.22
2022-10-14T19:13:57.789Z,99969.19
2022-10-14T20:01:20.303Z,99989.75
2022-10-14T20:04:05.485Z,99986.94
2022-10-14T20:06:35.719Z,99983.66
2022-10-14T20:15:23.516Z,99985.63
2022-10-14T20:21:06.354Z,99989.13
2022-10-14T20:32:31.135Z,99974.16
2022-10-14T20:35:01.391Z,99974.34
2022-10-14T20:47:53.395Z,99980.91
2022-10-14T20:56:28.578Z,99993.03
2022-10-14T20:58:59.337Z,99980.88
2022-10-14T21:01:27.639Z,99994.69
2022-10-14T21:03:55.202Z,99991.03
2022-10-14T21:06:24.948Z,99985.22
2022-10-14T21:08:52.565Z,99989.38
2022-10-14T21:11:27.336Z,99991.53
2022-10-14T21:14:01.748Z,99996.03
2022-10-14T21:16:36.746Z,99999.38
2022-10-14T21:19:06.874Z,99994.72
2022-10-14T21:21:47.948Z,99993.22
2022-10-14T21:24:18.576Z,99989.03
2022-10-14T21:26:49.299Z,99999.06
2022-10-14T21:29:21.869Z,99991.72
2022-10-14T21:31:49.600Z,99992.88
2022-10-14T21:34:18.099Z,99995.38
2022-10-14T21:36:48.495Z,99992.19
2022-10-14T21:39:27.299Z,99989.19
2022-10-14T21:41:54.447Z,100000.53
2022-10-14T21:44:24.169Z,99999.34
2022-10-14T21:46:51.099Z,99996.50
2022-10-14T21:49:18.727Z,100001.34
2022-10-14T21:51:45.850Z,99991.03
2022-10-14T21:54:15.819Z,100000.38
2022-10-14T21:56:43.080Z,100010.34
2022-10-14T21:59:12.506Z,100005.03
2022-10-14T22:01:39.603Z,100009.34
2022-10-14T22:04:13.971Z,100006.03
2022-10-14T22:06:43.699Z,100006.72
2022-10-14T22:09:10.653Z,100007.53
2022-10-14T22:11:40.110Z,100014.50
2022-10-14T22:14:13.043Z,100006.03
2022-10-14T22:16:40.082Z,100010.69
2022-10-14T22:19:07.465Z,100003.72
2022-10-14T22:21:36.621Z,100002.53
2022-10-14T22:24:05.673Z,100008.03
2022-10-14T22:26:33.969Z,100005.72
2022-10-14T22:29:14.181Z,100002.03
2022-10-14T22:31:42.500Z,100012.03
2022-10-14T22:34:11.527Z,100011.38
2022-10-14T22:36:38.452Z,100014.00
2022-10-14T22:39:08.447Z,100011.69
2022-10-14T22:41:37.603Z,100008.03
2022-10-14T22:44:07.214Z,100012.19
2022-10-14T22:46:38.967Z,100016.00
2022-10-14T22:49:06.222Z,100019.00
2022-10-14T22:51:35.711Z,100009.31
2022-10-14T22:54:03.550Z,100015.63
2022-10-14T22:56:31.875Z,100020.47
2022-10-14T22:59:07.869Z,100020.31
2022-10-14T23:01:35.133Z,100019.28
2022-10-14T23:04:06.515Z,100012.31
2022-10-14T23:06:33.694Z,100016.63
2022-10-14T23:09:01.269Z,100011.47
2022-10-14T23:11:32.223Z,100017.78
2022-10-14T23:14:01.634Z,100007.28
2022-10-14T23:16:31.827Z,100015.44
2022-10-14T23:19:01.901Z,100011.28
2022-10-14T23:21:30.810Z,100011.63
2022-10-14T23:24:00.424Z,100017.78
2022-10-14T23:26:31.718Z,100014.28
2022-10-14T23:29:04.558Z,100008.94
2022-10-14T23:31:36.031Z,100010.09
2022-10-14T23:34:11.339Z,100016.94
2022-10-14T23:36:38.869Z,100012.44
2022-10-14T23:39:06.229Z,100019.44
2022-10-14T23:41:33.442Z,100021.78
2022-10-14T23:44:00.533Z,100015.78
2022-10-14T23:46:27.476Z,100010.97
2022-10-14T23:49:06.593Z,100018.28
2022-10-14T23:51:34.399Z,100013.78
2022-10-14T23:54:01.351Z,100015.59
2022-10-14T23:56:28.406Z,100016.72
2022-10-14T23:58:55.459Z,100007.22
